sensor_id;sensor_type;location;lat;lon;timestamp;pressure;altitude;pressure_sealevel;temperature;humidity
61757;BME280;57225;61.460;24.060;2024-03-02T00:02:14;100887.25;;;-0.39;100.00
61757;BME280;57225;61.460;24.060;2024-03-02T00:04:59;100886.44;;;-0.40;100.00
61757;BME280;57225;61.460;24.060;2024-03-02T00:07:45;100877.91;;;-0.38;100.00
61757;BME280;57225;61.460;24.060;2024-03-02T00:10:39;100880.16;;;-0.41;100.00
61757;BME280;57225;61.460;24.060;2024-03-02T00:13:26;100879.75;;;-0.48;100.00
61757;BME280;57225;61.460;24.060;2024-03-02T00:16:11;100887.53;;;-0.41;100.00
61757;BME280;57225;61.460;24.060;2024-03-02T00:18:55;100893.84;;;-0.41;100.00
61757;BME280;57225;61.460;24.060;2024-03-02T00:21:40;100883.50;;;-0.44;100.00
61757;BME280;57225;61.460;24.060;2024-03-02T00:24:31;100884.00;;;-0.42;100.00
61757;BME280;57225;61.460;24.060;2024-03-02T00:27:18;100880.41;;;-0.51;100.00
61757;BME280;57225;61.460;24.060;2024-03-02T00:31:06;100888.09;;;-0.53;100.00
61757;BME280;57225;61.460;24.060;2024-03-02T00:33:45;100894.88;;;-0.50;100.00
61757;BME280;57225;61.460;24.060;2024-03-02T00:36:30;100888.47;;;-0.46;100.00
61757;BME280;57225;61.460;24.060;2024-03-02T00:39:18;100892.13;;;-0.50;100.00
61757;BME280;57225;61.460;24.060;2024-03-02T00:42:03;100886.34;;;-0.49;100.00
61757;BME280;57225;61.460;24.060;2024-03-02T00:44:47;100893.44;;;-0.48;100.00
61757;BME280;57225;61.460;24.060;2024-03-02T00:47:31;100882.50;;;-0.48;100.00
61757;BME280;57225;61.460;24.060;2024-03-02T00:50:17;100899.75;;;-0.47;100.00
61757;BME280;57225;61.460;24.060;2024-03-02T00:53:01;100903.16;;;-0.42;100.00
61757;BME280;57225;61.460;24.060;2024-03-02T00:55:46;100896.19;;;-0.48;100.00
61757;BME280;57225;61.460;24.060;2024-03-02T00:58:32;100893.75;;;-0.49;100.00
61757;BME280;57225;61.460;24.060;2024-03-02T01:01:16;100896.00;;;-0.51;100.00
61757;BME280;57225;61.460;24.060;2024-03-02T01:04:01;100889.72;;;-0.52;100.00
61757;BME280;57225;61.460;24.060;2024-03-02T01:06:45;100891.03;;;-0.49;100.00
61757;BME280;57225;61.460;24.060;2024-03-02T01:09:30;100891.91;;;-0.40;100.00
61757;BME280;57225;61.460;24.060;2024-03-02T01:12:14;100897.56;;;-0.36;100.00
61757;BME280;57225;61.460;24.060;2024-03-02T01:14:59;100893.53;;;-0.39;100.00
61757;BME280;57225;61.460;24.060;2024-03-02T01:17:43;100892.72;;;-0.39;100.00
61757;BME280;57225;61.460;24.060;2024-03-02T01:20:28;100881.56;;;-0.43;100.00
61757;BME280;57225;61.460;24.060;2024-03-02T01:23:12;100870.44;;;-0.47;100.00
61757;BME280;57225;61.460;24.060;2024-03-02T01:25:56;100879.03;;;-0.39;100.00
61757;BME280;57225;61.460;24.060;2024-03-02T01:28:41;100895.47;;;-0.39;100.00
61757;BME280;57225;61.460;24.060;2024-03-02T01:31:25;100890.09;;;-0.45;100.00
61757;BME280;57225;61.460;24.060;2024-03-02T01:34:10;100893.28;;;-0.51;100.00
61757;BME280;57225;61.460;24.060;2024-03-02T01:36:54;100889.09;;;-0.49;100.00
61757;BME280;57225;61.460;24.060;2024-03-02T01:39:39;100886.34;;;-0.49;100.00
61757;BME280;57225;61.460;24.060;2024-03-02T01:42:23;100885.13;;;-0.43;100.00
61757;BME280;57225;61.460;24.060;2024-03-02T01:45:08;100877.28;;;-0.35;100.00
61757;BME280;57225;61.460;24.060;2024-03-02T01:47:53;100883.38;;;-0.38;100.00
61757;BME280;57225;61.460;24.060;2024-03-02T01:50:37;100875.66;;;-0.36;100.00
61757;BME280;57225;61.460;24.060;2024-03-02T01:53:22;100876.16;;;-0.34;100.00
61757;BME280;57225;61.460;24.060;2024-03-02T01:56:06;100876.28;;;-0.39;100.00
61757;BME280;57225;61.460;24.060;2024-03-02T01:58:51;100879.16;;;-0.45;100.00
61757;BME280;57225;61.460;24.060;2024-03-02T02:22:25;100880.03;;;-0.58;100.00
61757;BME280;57225;61.460;24.060;2024-03-02T02:25:09;100876.03;;;-0.52;100.00
61757;BME280;57225;61.460;24.060;2024-03-02T02:27:54;100873.31;;;-0.52;100.00
61757;BME280;57225;61.460;24.060;2024-03-02T02:30:39;100871.03;;;-0.50;100.00
61757;BME280;57225;61.460;24.060;2024-03-02T02:33:23;100865.47;;;-0.45;100.00
61757;BME280;57225;61.460;24.060;2024-03-02T02:36:08;100855.03;;;-0.56;100.00
61757;BME280;57225;61.460;24.060;2024-03-02T02:38:54;100859.56;;;-0.38;100.00
61757;BME280;57225;61.460;24.060;2024-03-02T02:41:39;100864.31;;;-0.44;100.00
61757;BME280;57225;61.460;24.060;2024-03-02T02:44:23;100864.09;;;-0.33;100.00
61757;BME280;57225;61.460;24.060;2024-03-02T02:47:08;100865.06;;;-0.29;100.00
61757;BME280;57225;61.460;24.060;2024-03-02T02:49:52;100858.47;;;-0.28;100.00
61757;BME280;57225;61.460;24.060;2024-03-02T02:52:38;100858.78;;;-0.30;100.00
61757;BME280;57225;61.460;24.060;2024-03-02T02:55:24;100851.22;;;-0.33;100.00
61757;BME280;57225;61.460;24.060;2024-03-02T02:58:11;100847.81;;;-0.30;100.00
61757;BME280;57225;61.460;24.060;2024-03-02T03:00:56;100853.50;;;-0.26;100.00
61757;BME280;57225;61.460;24.060;2024-03-02T03:03:40;100853.44;;;-0.35;100.00
61757;BME280;57225;61.460;24.060;2024-03-02T03:06:25;100848.47;;;-0.33;100.00
61757;BME280;57225;61.460;24.060;2024-03-02T03:09:11;100848.25;;;-0.36;100.00
61757;BME280;57225;61.460;24.060;2024-03-02T03:11:55;100843.28;;;-0.34;100.00
61757;BME280;57225;61.460;24.060;2024-03-02T03:14:43;100840.25;;;-0.33;100.00
61757;BME280;57225;61.460;24.060;2024-03-02T03:17:27;100839.47;;;-0.25;100.00
61757;BME280;57225;61.460;24.060;2024-03-02T03:20:12;100840.72;;;-0.31;100.00
61757;BME280;57225;61.460;24.060;2024-03-02T03:23:03;100832.88;;;-0.24;100.00
61757;BME280;57225;61.460;24.060;2024-03-02T03:25:48;100841.47;;;-0.17;100.00
61757;BME280;57225;61.460;24.060;2024-03-02T03:28:32;100832.94;;;-0.15;100.00
61757;BME280;57225;61.460;24.060;2024-03-02T03:31:17;100839.03;;;-0.18;100.00
61757;BME280;57225;61.460;24.060;2024-03-02T03:34:01;100842.59;;;-0.18;100.00
61757;BME280;57225;61.460;24.060;2024-03-02T03:36:46;100835.38;;;-0.14;100.00
61757;BME280;57225;61.460;24.060;2024-03-02T03:39:30;100834.19;;;-0.21;100.00
61757;BME280;57225;61.460;24.060;2024-03-02T03:42:15;100836.13;;;-0.22;100.00
61757;BME280;57225;61.460;24.060;2024-03-02T03:44:59;100850.63;;;-0.21;100.00
61757;BME280;57225;61.460;24.060;2024-03-02T03:47:43;100853.22;;;-0.16;100.00
61757;BME280;57225;61.460;24.060;2024-03-02T03:50:28;100846.78;;;-0.20;100.00
61757;BME280;57225;61.460;24.060;2024-03-02T03:53:12;100850.78;;;-0.26;100.00
61757;BME280;57225;61.460;24.060;2024-03-02T03:55:59;100838.41;;;-0.15;100.00
61757;BME280;57225;61.460;24.060;2024-03-02T03:58:43;100844.50;;;-0.18;100.00
61757;BME280;57225;61.460;24.060;2024-03-02T04:01:28;100838.56;;;-0.20;100.00
61757;BME280;57225;61.460;24.060;2024-03-02T04:04:12;100837.88;;;-0.26;100.00
61757;BME280;57225;61.460;24.060;2024-03-02T04:06:56;100846.72;;;-0.29;100.00
61757;BME280;57225;61.460;24.060;2024-03-02T04:09:41;100842.22;;;-0.25;100.00
61757;BME280;57225;61.460;24.060;2024-03-02T04:12:25;100839.63;;;-0.30;100.00
61757;BME280;57225;61.460;24.060;2024-03-02T04:15:10;100836.72;;;-0.25;100.00
61757;BME280;57225;61.460;24.060;2024-03-02T04:17:54;100838.19;;;-0.27;100.00
61757;BME280;57225;61.460;24.060;2024-03-02T04:20:39;100840.63;;;-0.26;100.00
61757;BME280;57225;61.460;24.060;2024-03-02T04:23:24;100834.13;;;-0.30;100.00
61757;BME280;57225;61.460;24.060;2024-03-02T04:26:09;100837.38;;;-0.28;100.00
61757;BME280;57225;61.460;24.060;2024-03-02T04:28:53;100837.06;;;-0.26;100.00
61757;BME280;57225;61.460;24.060;2024-03-02T04:31:38;100837.69;;;-0.29;100.00
61757;BME280;57225;61.460;24.060;2024-03-02T04:34:22;100833.53;;;-0.27;100.00
61757;BME280;57225;61.460;24.060;2024-03-02T04:37:06;100832.88;;;-0.24;100.00
61757;BME280;57225;61.460;24.060;2024-03-02T04:39:51;100822.25;;;-0.25;100.00
61757;BME280;57225;61.460;24.060;2024-03-02T04:42:36;100813.53;;;-0.27;100.00
61757;BME280;57225;61.460;24.060;2024-03-02T04:45:20;100817.09;;;-0.27;100.00
61757;BME280;57225;61.460;24.060;2024-03-02T04:48:05;100823.47;;;-0.31;100.00
61757;BME280;57225;61.460;24.060;2024-03-02T04:50:52;100830.47;;;-0.25;100.00
61757;BME280;57225;61.460;24.060;2024-03-02T04:53:37;100819.53;;;-0.25;100.00
61757;BME280;57225;61.460;24.060;2024-03-02T04:56:23;100819.59;;;-0.39;100.00
61757;BME280;57225;61.460;24.060;2024-03-02T04:59:10;100844.78;;;-0.28;100.00
61757;BME280;57225;61.460;24.060;2024-03-02T05:01:55;100838.69;;;-0.25;100.00
61757;BME280;57225;61.460;24.060;2024-03-02T05:04:39;100829.78;;;-0.31;100.00
61757;BME280;57225;61.460;24.060;2024-03-02T05:07:24;100834.69;;;-0.19;100.00
61757;BME280;57225;61.460;24.060;2024-03-02T05:10:08;100837.06;;;-0.26;100.00
61757;BME280;57225;61.460;24.060;2024-03-02T05:12:53;100830.19;;;-0.15;100.00
61757;BME280;57225;61.460;24.060;2024-03-02T05:15:41;100838.91;;;-0.13;100.00
61757;BME280;57225;61.460;24.060;2024-03-02T05:18:26;100846.13;;;-0.17;100.00
61757;BME280;57225;61.460;24.060;2024-03-02T05:21:10;100844.41;;;-0.13;100.00
61757;BME280;57225;61.460;24.060;2024-03-02T05:23:55;100846.50;;;-0.10;100.00
61757;BME280;57225;61.460;24.060;2024-03-02T05:26:49;100851.16;;;-0.11;100.00
61757;BME280;57225;61.460;24.060;2024-03-02T05:29:33;100854.66;;;-0.19;100.00
61757;BME280;57225;61.460;24.060;2024-03-02T05:32:18;100851.44;;;-0.21;100.00
61757;BME280;57225;61.460;24.060;2024-03-02T05:35:02;100852.94;;;-0.15;100.00
61757;BME280;57225;61.460;24.060;2024-03-02T05:37:47;100853.75;;;-0.14;100.00
61757;BME280;57225;61.460;24.060;2024-03-02T05:40:32;100856.84;;;-0.07;100.00
61757;BME280;57225;61.460;24.060;2024-03-02T05:43:16;100851.47;;;-0.12;100.00
61757;BME280;57225;61.460;24.060;2024-03-02T05:46:00;100854.03;;;-0.16;100.00
61757;BME280;57225;61.460;24.060;2024-03-02T05:48:45;100855.47;;;-0.18;100.00
61757;BME280;57225;61.460;24.060;2024-03-02T05:51:29;100855.84;;;-0.11;100.00
61757;BME280;57225;61.460;24.060;2024-03-02T05:54:14;100856.28;;;-0.18;100.00
61757;BME280;57225;61.460;24.060;2024-03-02T05:56:59;100861.75;;;-0.18;100.00
61757;BME280;57225;61.460;24.060;2024-03-02T06:00:00;100861.31;;;-0.11;100.00
61757;BME280;57225;61.460;24.060;2024-03-02T06:02:45;100866.31;;;-0.13;100.00
61757;BME280;57225;61.460;24.060;2024-03-02T06:05:29;100858.28;;;-0.10;100.00
61757;BME280;57225;61.460;24.060;2024-03-02T06:08:14;100861.81;;;-0.09;100.00
61757;BME280;57225;61.460;24.060;2024-03-02T06:10:58;100862.94;;;-0.10;100.00
61757;BME280;57225;61.460;24.060;2024-03-02T06:13:43;100842.91;;;-0.19;100.00
61757;BME280;57225;61.460;24.060;2024-03-02T06:16:27;100864.41;;;-0.04;100.00
61757;BME280;57225;61.460;24.060;2024-03-02T06:19:12;100865.38;;;-0.09;100.00
61757;BME280;57225;61.460;24.060;2024-03-02T06:21:56;100865.91;;;0.02;100.00
61757;BME280;57225;61.460;24.060;2024-03-02T06:24:40;100870.78;;;0.14;100.00
61757;BME280;57225;61.460;24.060;2024-03-02T06:27:26;100870.13;;;0.08;100.00
61757;BME280;57225;61.460;24.060;2024-03-02T06:30:10;100877.06;;;0.06;100.00
61757;BME280;57225;61.460;24.060;2024-03-02T06:32:55;100884.41;;;-0.04;100.00
61757;BME280;57225;61.460;24.060;2024-03-02T06:35:39;100888.03;;;0.06;100.00
61757;BME280;57225;61.460;24.060;2024-03-02T06:38:25;100883.34;;;0.06;100.00
61757;BME280;57225;61.460;24.060;2024-03-02T06:41:10;100879.84;;;0.14;100.00
61757;BME280;57225;61.460;24.060;2024-03-02T06:43:54;100883.06;;;0.16;100.00
61757;BME280;57225;61.460;24.060;2024-03-02T06:46:43;100895.66;;;0.17;100.00
61757;BME280;57225;61.460;24.060;2024-03-02T06:49:28;100892.25;;;0.12;100.00
61757;BME280;57225;61.460;24.060;2024-03-02T06:52:12;100899.16;;;0.09;100.00
61757;BME280;57225;61.460;24.060;2024-03-02T06:54:57;100903.00;;;0.08;100.00
61757;BME280;57225;61.460;24.060;2024-03-02T06:57:41;100907.88;;;0.11;100.00
61757;BME280;57225;61.460;24.060;2024-03-02T07:00:26;100913.38;;;0.11;100.00
61757;BME280;57225;61.460;24.060;2024-03-02T07:03:10;100909.97;;;0.14;100.00
61757;BME280;57225;61.460;24.060;2024-03-02T07:05:55;100916.28;;;0.15;100.00
61757;BME280;57225;61.460;24.060;2024-03-02T07:08:39;100912.91;;;0.18;100.00
61757;BME280;57225;61.460;24.060;2024-03-02T07:11:24;100915.97;;;0.16;100.00
61757;BME280;57225;61.460;24.060;2024-03-02T07:14:08;100917.59;;;0.17;100.00
61757;BME280;57225;61.460;24.060;2024-03-02T07:16:53;100927.91;;;0.20;100.00
61757;BME280;57225;61.460;24.060;2024-03-02T07:19:38;100928.91;;;0.24;100.00
61757;BME280;57225;61.460;24.060;2024-03-02T07:22:23;100919.81;;;0.15;100.00
61757;BME280;57225;61.460;24.060;2024-03-02T07:25:07;100920.81;;;0.19;100.00
61757;BME280;57225;61.460;24.060;2024-03-02T07:27:52;100927.91;;;0.20;100.00
61757;BME280;57225;61.460;24.060;2024-03-02T07:30:36;100924.06;;;0.21;100.00
61757;BME280;57225;61.460;24.060;2024-03-02T07:33:23;100934.56;;;0.28;100.00
61757;BME280;57225;61.460;24.060;2024-03-02T07:36:07;100932.13;;;0.26;100.00
61757;BME280;57225;61.460;24.060;2024-03-02T07:38:52;100932.63;;;0.28;100.00
61757;BME280;57225;61.460;24.060;2024-03-02T07:41:36;100934.41;;;0.24;100.00
61757;BME280;57225;61.460;24.060;2024-03-02T07:44:21;100929.53;;;0.21;100.00
61757;BME280;57225;61.460;24.060;2024-03-02T07:47:06;100931.31;;;0.26;100.00
61757;BME280;57225;61.460;24.060;2024-03-02T07:49:51;100932.13;;;0.26;100.00
61757;BME280;57225;61.460;24.060;2024-03-02T07:52:35;100936.72;;;0.39;100.00
61757;BME280;57225;61.460;24.060;2024-03-02T07:55:20;100931.88;;;0.36;100.00
61757;BME280;57225;61.460;24.060;2024-03-02T07:58:04;100939.28;;;0.36;100.00
61757;BME280;57225;61.460;24.060;2024-03-02T08:00:52;100938.66;;;0.39;100.00
61757;BME280;57225;61.460;24.060;2024-03-02T08:03:37;100943.66;;;0.37;100.00
61757;BME280;57225;61.460;24.060;2024-03-02T08:06:21;100941.22;;;0.35;100.00
61757;BME280;57225;61.460;24.060;2024-03-02T08:09:06;100937.72;;;0.44;100.00
61757;BME280;57225;61.460;24.060;2024-03-02T08:11:53;100934.66;;;0.45;100.00
61757;BME280;57225;61.460;24.060;2024-03-02T08:14:37;100940.50;;;0.52;100.00
61757;BME280;57225;61.460;24.060;2024-03-02T08:17:22;100940.59;;;0.38;100.00
61757;BME280;57225;61.460;24.060;2024-03-02T08:20:11;100942.84;;;0.36;100.00
61757;BME280;57225;61.460;24.060;2024-03-02T08:22:55;100949.63;;;0.39;100.00
61757;BME280;57225;61.460;24.060;2024-03-02T08:25:40;100954.03;;;0.49;100.00
61757;BME280;57225;61.460;24.060;2024-03-02T08:28:24;100942.94;;;0.54;100.00
61757;BME280;57225;61.460;24.060;2024-03-02T08:31:09;100944.25;;;0.56;100.00
61757;BME280;57225;61.460;24.060;2024-03-02T08:33:54;100935.88;;;0.61;100.00
61757;BME280;57225;61.460;24.060;2024-03-02T08:36:38;100939.09;;;0.63;100.00
61757;BME280;57225;61.460;24.060;2024-03-02T08:39:23;100950.69;;;0.60;100.00
61757;BME280;57225;61.460;24.060;2024-03-02T08:42:07;100935.28;;;0.42;100.00
61757;BME280;57225;61.460;24.060;2024-03-02T08:44:52;100941.50;;;0.56;100.00
61757;BME280;57225;61.460;24.060;2024-03-02T08:47:36;100936.31;;;0.55;100.00
61757;BME280;57225;61.460;24.060;2024-03-02T08:50:21;100925.97;;;0.52;100.00
61757;BME280;57225;61.460;24.060;2024-03-02T08:53:05;100934.09;;;0.65;100.00
61757;BME280;57225;61.460;24.060;2024-03-02T08:55:50;100928.59;;;0.57;100.00
61757;BME280;57225;61.460;24.060;2024-03-02T08:58:34;100935.69;;;0.58;100.00
61757;BME280;57225;61.460;24.060;2024-03-02T09:01:19;100940.91;;;0.68;100.00
61757;BME280;57225;61.460;24.060;2024-03-02T09:04:04;100926.78;;;0.52;100.00
61757;BME280;57225;61.460;24.060;2024-03-02T09:06:48;100935.19;;;0.56;100.00
61757;BME280;57225;61.460;24.060;2024-03-02T09:09:33;100927.09;;;0.51;100.00
61757;BME280;57225;61.460;24.060;2024-03-02T09:12:18;100932.47;;;0.56;100.00
61757;BME280;57225;61.460;24.060;2024-03-02T09:15:03;100930.69;;;0.60;100.00
61757;BME280;57225;61.460;24.060;2024-03-02T09:17:47;100926.69;;;0.66;100.00
61757;BME280;57225;61.460;24.060;2024-03-02T09:20:32;100923.94;;;0.66;100.00
61757;BME280;57225;61.460;24.060;2024-03-02T09:23:16;100931.06;;;0.67;100.00
61757;BME280;57225;61.460;24.060;2024-03-02T09:26:01;100935.75;;;0.75;100.00
61757;BME280;57225;61.460;24.060;2024-03-02T09:28:45;100945.44;;;0.72;100.00
61757;BME280;57225;61.460;24.060;2024-03-02T09:31:30;100941.72;;;0.77;100.00
61757;BME280;57225;61.460;24.060;2024-03-02T09:34:14;100944.19;;;0.87;100.00
61757;BME280;57225;61.460;24.060;2024-03-02T09:36:59;100944.19;;;0.87;100.00
61757;BME280;57225;61.460;24.060;2024-03-02T09:39:44;100952.09;;;0.80;100.00
61757;BME280;57225;61.460;24.060;2024-03-02T09:42:29;100948.34;;;0.76;100.00
61757;BME280;57225;61.460;24.060;2024-03-02T09:45:14;100951.25;;;0.79;100.00
61757;BME280;57225;61.460;24.060;2024-03-02T09:47:59;100954.50;;;0.82;100.00
61757;BME280;57225;61.460;24.060;2024-03-02T09:50:44;100958.53;;;0.84;100.00
61757;BME280;57225;61.460;24.060;2024-03-02T09:53:31;100963.56;;;0.91;100.00
61757;BME280;57225;61.460;24.060;2024-03-02T09:56:16;100959.66;;;0.83;100.00
61757;BME280;57225;61.460;24.060;2024-03-02T09:59:00;100959.34;;;0.85;100.00
61757;BME280;57225;61.460;24.060;2024-03-02T10:01:58;100957.72;;;0.84;100.00
61757;BME280;57225;61.460;24.060;2024-03-02T10:04:43;100949.03;;;0.82;100.00
61757;BME280;57225;61.460;24.060;2024-03-02T10:07:28;100953.41;;;0.91;100.00
61757;BME280;57225;61.460;24.060;2024-03-02T10:10:14;100943.75;;;0.94;100.00
61757;BME280;57225;61.460;24.060;2024-03-02T10:13:06;100945.22;;;1.08;100.00
61757;BME280;57225;61.460;24.060;2024-03-02T10:15:50;100945.88;;;1.14;100.00
61757;BME280;57225;61.460;24.060;2024-03-02T10:18:35;100950.84;;;1.03;100.00
61757;BME280;57225;61.460;24.060;2024-03-02T10:21:19;100957.66;;;1.06;100.00
61757;BME280;57225;61.460;24.060;2024-03-02T10:24:07;100961.81;;;0.95;100.00
61757;BME280;57225;61.460;24.060;2024-03-02T10:26:52;100966.50;;;1.03;100.00
61757;BME280;57225;61.460;24.060;2024-03-02T10:29:40;100958.28;;;0.94;100.00
61757;BME280;57225;61.460;24.060;2024-03-02T10:32:27;100958.88;;;0.91;100.00
61757;BME280;57225;61.460;24.060;2024-03-02T10:35:11;100952.59;;;0.91;100.00
61757;BME280;57225;61.460;24.060;2024-03-02T10:37:56;100963.59;;;0.99;100.00
61757;BME280;57225;61.460;24.060;2024-03-02T10:40:47;100966.19;;;1.04;100.00
61757;BME280;57225;61.460;24.060;2024-03-02T10:43:32;100962.19;;;1.10;100.00
61757;BME280;57225;61.460;24.060;2024-03-02T10:46:19;100946.69;;;1.14;100.00
61757;BME280;57225;61.460;24.060;2024-03-02T10:49:05;100946.41;;;1.25;100.00
61757;BME280;57225;61.460;24.060;2024-03-02T10:51:50;100953.16;;;1.18;100.00
61757;BME280;57225;61.460;24.060;2024-03-02T10:54:35;100958.47;;;1.15;100.00
61757;BME280;57225;61.460;24.060;2024-03-02T10:57:25;100959.00;;;1.26;100.00
61757;BME280;57225;61.460;24.060;2024-03-02T11:00:14;100934.75;;;1.19;100.00
61757;BME280;57225;61.460;24.060;2024-03-02T11:03:05;100959.28;;;1.15;100.00
61757;BME280;57225;61.460;24.060;2024-03-02T11:05:59;100966.59;;;1.20;100.00
61757;BME280;57225;61.460;24.060;2024-03-02T11:08:47;100972.72;;;1.26;100.00
61757;BME280;57225;61.460;24.060;2024-03-02T11:11:40;100975.75;;;1.15;100.00
61757;BME280;57225;61.460;24.060;2024-03-02T11:14:30;100972.53;;;1.13;100.00
61757;BME280;57225;61.460;24.060;2024-03-02T11:17:16;100977.56;;;1.20;100.00
61757;BME280;57225;61.460;24.060;2024-03-02T11:20:03;100972.38;;;1.27;100.00
61757;BME280;57225;61.460;24.060;2024-03-02T11:22:48;100969.16;;;1.25;100.00
61757;BME280;57225;61.460;24.060;2024-03-02T11:25:33;100971.56;;;1.27;100.00
61757;BME280;57225;61.460;24.060;2024-03-02T11:28:34;100963.84;;;1.29;100.00
61757;BME280;57225;61.460;24.060;2024-03-02T11:31:21;100966.09;;;1.35;100.00
61757;BME280;57225;61.460;24.060;2024-03-02T11:34:27;100964.16;;;1.36;100.00
61757;BME280;57225;61.460;24.060;2024-03-02T11:37:13;100967.88;;;1.31;100.00
61757;BME280;57225;61.460;24.060;2024-03-02T11:39:58;100972.56;;;1.31;100.00
61757;BME280;57225;61.460;24.060;2024-03-02T11:42:43;100971.91;;;1.34;100.00
61757;BME280;57225;61.460;24.060;2024-03-02T11:45:28;100966.28;;;1.39;100.00
61757;BME280;57225;61.460;24.060;2024-03-02T11:48:14;100971.91;;;1.34;100.00
61757;BME280;57225;61.460;24.060;2024-03-02T11:51:00;100971.78;;;1.47;100.00
61757;BME280;57225;61.460;24.060;2024-03-02T11:53:45;100970.81;;;1.43;100.00
61757;BME280;57225;61.460;24.060;2024-03-02T11:56:31;100970.50;;;1.45;100.00
61757;BME280;57225;61.460;24.060;2024-03-02T11:59:15;100966.56;;;1.29;100.00
61757;BME280;57225;61.460;24.060;2024-03-02T12:02:00;100968.97;;;1.21;100.00
61757;BME280;57225;61.460;24.060;2024-03-02T12:04:45;100975.31;;;1.31;100.00
61757;BME280;57225;61.460;24.060;2024-03-02T12:07:29;100974.53;;;1.39;100.00
61757;BME280;57225;61.460;24.060;2024-03-02T12:10:15;100973.38;;;1.31;100.00
61757;BME280;57225;61.460;24.060;2024-03-02T12:13:00;100977.75;;;1.32;100.00
61757;BME280;57225;61.460;24.060;2024-03-02T12:15:45;100967.88;;;1.31;100.00
61757;BME280;57225;61.460;24.060;2024-03-02T12:18:30;100957.38;;;1.25;100.00
61757;BME280;57225;61.460;24.060;2024-03-02T12:21:14;100957.53;;;1.28;100.00
61757;BME280;57225;61.460;24.060;2024-03-02T12:24:00;100951.56;;;1.35;100.00
61757;BME280;57225;61.460;24.060;2024-03-02T12:26:45;100951.56;;;1.35;100.00
61757;BME280;57225;61.460;24.060;2024-03-02T12:29:32;100950.59;;;1.39;100.00
61757;BME280;57225;61.460;24.060;2024-03-02T12:32:17;100954.81;;;1.37;100.00
61757;BME280;57225;61.460;24.060;2024-03-02T12:35:01;100951.75;;;1.47;100.00
61757;BME280;57225;61.460;24.060;2024-03-02T12:37:50;100965.13;;;1.40;100.00
61757;BME280;57225;61.460;24.060;2024-03-02T12:40:34;100967.06;;;1.39;100.00
61757;BME280;57225;61.460;24.060;2024-03-02T12:43:19;100963.06;;;1.45;100.00
61757;BME280;57225;61.460;24.060;2024-03-02T12:46:03;100968.56;;;1.45;100.00
61757;BME280;57225;61.460;24.060;2024-03-02T12:48:48;100959.53;;;1.62;100.00
61757;BME280;57225;61.460;24.060;2024-03-02T12:51:32;100972.28;;;1.49;100.00
61757;BME280;57225;61.460;24.060;2024-03-02T12:54:17;100966.28;;;1.39;100.00
61757;BME280;57225;61.460;24.060;2024-03-02T12:57:02;100976.13;;;1.40;100.00
61757;BME280;57225;61.460;24.060;2024-03-02T12:59:47;100961.75;;;1.34;100.00
61757;BME280;57225;61.460;24.060;2024-03-02T13:02:31;100986.47;;;1.43;100.00
61757;BME280;57225;61.460;24.060;2024-03-02T13:05:16;100977.94;;;1.44;100.00
61757;BME280;57225;61.460;24.060;2024-03-02T13:08:00;100982.94;;;1.51;100.00
61757;BME280;57225;61.460;24.060;2024-03-02T13:10:47;100983.91;;;1.55;100.00
61757;BME280;57225;61.460;24.060;2024-03-02T13:13:31;100983.28;;;1.58;100.00
61757;BME280;57225;61.460;24.060;2024-03-02T13:16:16;100991.81;;;1.48;100.00
61757;BME280;57225;61.460;24.060;2024-03-02T13:19:02;100986.16;;;1.53;100.00
61757;BME280;57225;61.460;24.060;2024-03-02T13:21:46;100978.91;;;1.57;100.00
61757;BME280;57225;61.460;24.060;2024-03-02T13:24:31;100982.47;;;1.66;100.00
61757;BME280;57225;61.460;24.060;2024-03-02T13:27:15;100981.66;;;1.48;100.00
61757;BME280;57225;61.460;24.060;2024-03-02T13:30:02;100976.00;;;1.53;100.00
61757;BME280;57225;61.460;24.060;2024-03-02T13:32:46;100979.88;;;1.61;100.00
61757;BME280;57225;61.460;24.060;2024-03-02T13:35:31;100975.81;;;1.58;100.00
61757;BME280;57225;61.460;24.060;2024-03-02T13:38:19;100965.50;;;1.55;100.00
61757;BME280;57225;61.460;24.060;2024-03-02T13:41:04;100969.06;;;1.56;100.00
61757;BME280;57225;61.460;24.060;2024-03-02T13:43:52;100973.91;;;1.50;100.00
61757;BME280;57225;61.460;24.060;2024-03-02T13:46:37;100974.53;;;1.56;100.00
61757;BME280;57225;61.460;24.060;2024-03-02T13:49:21;100977.91;;;1.53;100.00
61757;BME280;57225;61.460;24.060;2024-03-02T13:52:07;100973.09;;;1.50;100.00
61757;BME280;57225;61.460;24.060;2024-03-02T13:55:04;100968.06;;;1.52;100.00
61757;BME280;57225;61.460;24.060;2024-03-02T13:57:49;100964.84;;;1.50;100.00
61757;BME280;57225;61.460;24.060;2024-03-02T14:00:34;100969.53;;;1.49;100.00
61757;BME280;57225;61.460;24.060;2024-03-02T14:03:21;100964.53;;;1.51;100.00
61757;BME280;57225;61.460;24.060;2024-03-02T14:06:06;100966.63;;;1.54;100.00
61757;BME280;57225;61.460;24.060;2024-03-02T14:08:50;100962.88;;;1.42;100.00
61757;BME280;57225;61.460;24.060;2024-03-02T14:11:35;100969.03;;;1.39;100.00
61757;BME280;57225;61.460;24.060;2024-03-02T14:14:20;100958.69;;;1.36;100.00
61757;BME280;57225;61.460;24.060;2024-03-02T14:17:04;100955.44;;;1.34;100.00
61757;BME280;57225;61.460;24.060;2024-03-02T14:19:50;100963.69;;;1.25;100.00
61757;BME280;57225;61.460;24.060;2024-03-02T14:22:35;100974.47;;;1.21;100.00
61757;BME280;57225;61.460;24.060;2024-03-02T14:25:21;100977.06;;;1.18;100.00
61757;BME280;57225;61.460;24.060;2024-03-02T14:28:05;100975.75;;;1.15;100.00
61757;BME280;57225;61.460;24.060;2024-03-02T14:30:50;100980.78;;;1.13;100.00